Time;durP1;ratioP1;P1;durP2;ratioP2;P2;SDS_P1;SDS_P2;PMS_P1;PMS_P2;Temp;Humidity;BMP_temperature;BMP_pressure;BME280_temperature;BME280_humidity;BME280_pressure;Samples;Min_cycle;Max_cycle;Signal;HPM_P1;HPM_P2
2022/05/26 00:01:59;;;;;;;27.75;7.40;;;14.40;99.90;;;;;;5095643;28;20040;-55
2022/05/26 00:04:25;;;;;;;;;;;14.40;99.90;;;;;;5078341;28;20044;-55
2022/05/26 00:06:52;;;;;;;25.98;7.15;;;14.40;99.90;;;;;;5090159;28;19915;-55
2022/05/26 00:09:17;;;;;;;24.42;7.13;;;14.40;99.90;;;;;;5115737;28;20461;-55
2022/05/26 00:11:43;;;;;;;31.92;6.80;;;14.40;99.90;;;;;;5116019;28;20079;-55
2022/05/26 00:14:11;;;;;;;23.92;7.75;;;14.40;99.90;;;;;;5116019;28;20075;-55
2022/05/26 00:16:39;;;;;;;28.45;7.03;;;14.40;99.90;;;;;;5115739;28;20043;-55
2022/05/26 00:19:05;;;;;;;33.05;7.80;;;14.40;99.90;;;;;;5115739;28;20480;-55
2022/05/26 00:21:31;;;;;;;22.85;6.88;;;14.40;99.90;;;;;;5115659;28;20119;-55
2022/05/26 00:23:57;;;;;;;28.92;7.97;;;14.30;99.90;;;;;;5097073;28;20130;-55
2022/05/26 00:26:24;;;;;;;29.40;7.82;;;14.40;99.90;;;;;;5115663;28;20489;-55
2022/05/26 00:28:50;;;;;;;27.60;7.72;;;14.30;99.90;;;;;;5115305;28;20040;-55
2022/05/26 00:31:16;;;;;;;32.42;8.32;;;14.30;99.90;;;;;;5115544;28;20381;-55
2022/05/26 00:33:42;;;;;;;30.30;8.13;;;14.30;99.90;;;;;;5115690;28;20119;-55
2022/05/26 00:36:11;;;;;;;30.60;8.25;;;14.40;99.90;;;;;;5115847;28;20566;-55
2022/05/26 00:38:38;;;;;;;35.03;9.25;;;14.20;99.90;;;;;;5115396;28;20397;-55
2022/05/26 00:41:07;;;;;;;27.13;7.28;;;14.40;99.90;;;;;;5115376;28;20101;-55
2022/05/26 00:43:33;;;;;;;24.40;7.93;;;14.20;99.90;;;;;;5113434;28;20044;-55
2022/05/26 00:46:15;;;;;;;29.33;7.78;;;14.30;99.90;;;;;;5115259;28;20111;-55
2022/05/26 00:49:01;;;;;;;28.35;8.07;;;14.30;99.90;;;;;;5115321;28;20043;-55
2022/05/26 00:51:31;;;;;;;29.63;8.18;;;14.20;99.90;;;;;;5115044;28;20385;-55
2022/05/26 00:54:03;;;;;;;38.35;8.77;;;14.20;99.90;;;;;;5115186;28;20069;-55
2022/05/26 00:56:42;;;;;;;27.10;7.53;;;14.10;99.90;;;;;;5115077;28;20070;-55
2022/05/26 00:59:35;;;;;;;31.95;7.80;;;14.20;99.90;;;;;;5115309;28;20032;-55
2022/05/26 01:02:01;;;;;;;35.42;8.85;;;14.10;99.90;;;;;;5015848;28;20093;-55
2022/05/26 01:04:35;;;;;;;31.42;7.93;;;14.20;99.90;;;;;;5032136;28;20087;-55
2022/05/26 01:07:19;;;;;;;32.63;7.78;;;14.10;99.90;;;;;;5032200;28;20183;-55
2022/05/26 01:09:45;;;;;;;28.27;6.90;;;14.10;99.90;;;;;;5032325;28;20539;-55
2022/05/26 01:12:11;;;;;;;37.38;8.65;;;14.20;99.90;;;;;;5032167;28;20056;-55
2022/05/26 01:14:41;;;;;;;34.03;8.45;;;14.20;99.90;;;;;;5032163;28;20123;-55
2022/05/26 01:17:23;;;;;;;36.45;9.05;;;14.20;99.90;;;;;;5031894;28;20049;-55
2022/05/26 01:20:16;;;;;;;25.33;7.57;;;14.20;99.90;;;;;;5032003;28;20045;-55
2022/05/26 01:23:03;;;;;;;37.00;9.57;;;14.20;99.90;;;;;;5031812;28;20058;-55
2022/05/26 01:25:34;;;;;;;29.85;7.63;;;14.20;99.90;;;;;;5032037;28;20056;-55
2022/05/26 01:28:32;;;;;;;30.95;7.70;;;14.20;99.90;;;;;;5031922;28;20041;-55
2022/05/26 01:30:58;;;;;;;31.05;7.50;;;14.20;99.90;;;;;;5031572;28;20041;-55
2022/05/26 01:33:51;;;;;;;29.20;7.13;;;14.10;99.90;;;;;;5015110;28;20056;-55
2022/05/26 01:36:39;;;;;;;32.05;6.25;;;14.10;99.90;;;;;;5031610;28;20041;-55
2022/05/26 01:39:04;;;;;;;25.33;6.95;;;14.10;99.90;;;;;;5076380;28;20131;-55
2022/05/26 01:41:42;;;;;;;22.08;6.38;;;14.10;99.90;;;;;;5114391;28;20492;-55
2022/05/26 01:44:31;;;;;;;22.02;5.53;;;14.10;99.90;;;;;;5114281;28;20063;-55
2022/05/26 01:47:00;;;;;;;27.75;6.13;;;14.10;99.90;;;;;;5114102;28;20126;-55
2022/05/26 01:49:37;;;;;;;26.20;5.70;;;14.10;99.90;;;;;;5114076;28;20050;-55
2022/05/26 01:52:15;;;;;;;28.10;6.82;;;14.10;99.90;;;;;;5113899;28;20544;-55
2022/05/26 01:54:57;;;;;;;33.08;6.85;;;14.20;99.90;;;;;;5113321;28;20040;-55
2022/05/26 01:57:50;;;;;;;30.67;6.45;;;14.20;99.90;;;;;;5113749;28;20493;-55
2022/05/26 02:00:18;;;;;;;32.05;7.22;;;14.10;99.90;;;;;;5113714;28;20164;-55
2022/05/26 02:03:01;;;;;;;32.85;6.85;;;14.20;99.90;;;;;;5113937;28;20110;-55
2022/05/26 02:05:32;;;;;;;31.27;8.23;;;14.20;99.90;;;;;;5113573;28;20046;-55
2022/05/26 02:08:26;;;;;;;28.38;7.53;;;14.20;99.90;;;;;;5113868;28;20362;-55
2022/05/26 02:11:13;;;;;;;28.73;8.05;;;14.10;99.90;;;;;;5113577;28;20043;-55
2022/05/26 02:13:42;;;;;;;35.45;8.40;;;14.20;99.90;;;;;;5111847;28;20044;-55
2022/05/26 02:16:16;;;;;;;29.02;8.90;;;14.10;99.90;;;;;;5113643;28;20043;-55
2022/05/26 02:18:52;;;;;;;39.42;7.32;;;14.10;99.90;;;;;;5113470;28;20044;-55
2022/05/26 02:21:39;;;;;;;30.52;7.65;;;14.10;99.90;;;;;;5113363;28;20032;-55
2022/05/26 02:24:27;;;;;;;35.80;8.60;;;14.00;99.90;;;;;;5112971;28;20056;-55
2022/05/26 02:26:52;;;;;;;25.55;6.78;;;14.10;99.90;;;;;;5113213;28;20055;-55
2022/05/26 02:32:05;;;;;;;35.28;6.63;;;14.00;99.90;;;;;;5113214;28;20043;-55
2022/05/26 02:34:32;;;;;;;27.13;6.65;;;14.00;99.90;;;;;;5113049;28;20070;-55
2022/05/26 02:36:59;;;;;;;30.27;6.85;;;14.00;99.90;;;;;;5113214;28;20043;-55
2022/05/26 02:39:25;;;;;;;30.02;6.45;;;13.90;99.90;;;;;;5112965;28;20042;-55
2022/05/26 02:41:56;;;;;;;31.00;6.20;;;13.90;99.90;;;;;;5112925;28;20040;-55
2022/05/26 02:44:25;;;;;;;35.38;7.43;;;13.90;99.90;;;;;;5113035;28;20086;-55
2022/05/26 02:46:54;;;;;;;44.80;9.48;;;13.90;99.90;;;;;;5112667;28;20035;-55
2022/05/26 02:49:50;;;;;;;36.08;6.90;;;13.90;99.90;;;;;;5112774;28;20518;-55
2022/05/26 02:52:33;;;;;;;38.45;8.40;;;13.80;99.90;;;;;;5113118;28;20043;-55
2022/05/26 02:55:18;;;;;;;34.90;7.53;;;13.80;99.90;;;;;;5113029;28;20071;-55
2022/05/26 02:58:21;;;;;;;29.23;7.43;;;13.80;99.90;;;;;;5112640;28;20082;-55
2022/05/26 03:01:06;;;;;;;35.22;9.23;;;13.70;99.90;;;;;;5112723;28;20047;-55
2022/05/26 03:03:41;;;;;;;29.85;7.20;;;13.70;99.90;;;;;;5094540;28;20050;-55
2022/05/26 03:06:14;;;;;;;31.50;8.93;;;13.70;99.90;;;;;;5111862;28;20047;-55
2022/05/26 03:08:42;;;;;;;31.73;7.07;;;13.60;99.90;;;;;;5112768;28;20072;-55
2022/05/26 03:11:11;;;;;;;32.53;8.18;;;13.60;99.90;;;;;;5112594;28;20046;-55
2022/05/26 03:13:38;;;;;;;31.95;7.03;;;13.60;99.90;;;;;;5112762;28;20077;-55
2022/05/26 03:16:04;;;;;;;35.08;6.80;;;13.70;99.90;;;;;;5112615;28;20043;-55
2022/05/26 03:18:30;;;;;;;30.80;6.57;;;13.60;99.90;;;;;;5112675;28;20042;-55
2022/05/26 03:21:00;;;;;;;32.67;8.20;;;13.60;99.90;;;;;;5112571;28;20035;-55
2022/05/26 03:23:26;;;;;;;35.97;6.88;;;13.60;99.90;;;;;;5112547;28;20085;-55
2022/05/26 03:25:55;;;;;;;31.52;7.05;;;13.70;99.90;;;;;;5112600;28;20044;-55
2022/05/26 03:28:20;;;;;;;31.92;8.43;;;13.60;99.90;;;;;;5112823;28;20039;-56
2022/05/26 03:30:46;;;;;;;29.10;6.70;;;13.60;99.90;;;;;;5112610;28;20032;-55
2022/05/26 03:33:12;;;;;;;24.10;5.70;;;13.50;99.90;;;;;;5112653;28;20032;-55
2022/05/26 03:41:06;;;;;;;22.98;4.70;;;13.50;99.90;;;;;;5112318;28;20043;-55
2022/05/26 03:43:39;;;;;;;18.35;4.57;;;13.50;99.90;;;;;;5112588;28;20046;-55
2022/05/26 03:46:06;;;;;;;19.58;4.30;;;13.50;99.90;;;;;;5112010;28;20039;-55
2022/05/26 03:48:31;;;;;;;15.73;3.50;;;13.40;99.90;;;;;;5112155;28;20070;-55
2022/05/26 03:50:58;;;;;;;16.80;3.70;;;13.50;99.90;;;;;;5112196;28;20039;-55
2022/05/26 03:53:24;;;;;;;16.60;3.67;;;13.40;99.90;;;;;;5112040;28;20040;-55
2022/05/26 03:55:50;;;;;;;14.40;4.30;;;13.40;99.90;;;;;;5093886;28;20047;-55
2022/05/26 03:58:17;;;;;;;11.73;3.08;;;13.30;99.90;;;;;;5111786;28;20375;-55
2022/05/26 04:00:43;;;;;;;15.52;3.25;;;13.30;99.90;;;;;;5112008;28;20100;-55
2022/05/26 04:03:09;;;;;;;13.93;3.90;;;13.40;99.90;;;;;;5112144;28;20419;-55
2022/05/26 04:05:35;;;;;;;13.80;3.50;;;13.30;99.90;;;;;;5112148;28;20039;-55
2022/05/26 04:08:00;;;;;;;13.15;2.60;;;13.30;99.90;;;;;;5111836;28;20036;-55
2022/05/26 04:10:27;;;;;;;13.05;3.03;;;13.30;99.90;;;;;;5111933;28;20039;-55
2022/05/26 04:12:53;;;;;;;10.75;2.58;;;13.30;99.90;;;;;;5111877;28;20050;-55
2022/05/26 04:15:19;;;;;;;11.35;2.40;;;13.30;99.90;;;;;;5112161;28;20057;-55
2022/05/26 04:17:45;;;;;;;15.10;2.97;;;13.30;99.90;;;;;;5114055;28;20481;-55
2022/05/26 04:20:14;;;;;;;8.30;2.30;;;13.40;99.90;;;;;;5115532;28;20050;-55
2022/05/26 04:22:40;;;;;;;15.77;3.47;;;13.40;99.90;;;;;;5115510;28;20083;-55
2022/05/26 04:25:06;;;;;;;10.68;1.80;;;13.40;99.90;;;;;;5115477;28;20082;-55
2022/05/26 04:27:33;;;;;;;10.23;2.05;;;13.40;99.90;;;;;;5115768;28;20044;-55
2022/05/26 04:30:01;;;;;;;14.45;3.15;;;13.30;99.90;;;;;;5115608;28;20080;-55
2022/05/26 04:32:27;;;;;;;10.90;2.03;;;13.40;99.90;;;;;;5115373;28;20036;-55
2022/05/26 04:34:53;;;;;;;9.93;2.00;;;13.40;99.90;;;;;;5115432;28;20035;-55
2022/05/26 04:37:20;;;;;;;5.38;1.70;;;13.30;99.90;;;;;;5115328;28;20040;-55
2022/05/26 04:39:46;;;;;;;9.23;1.75;;;13.30;99.90;;;;;;5115443;28;20390;-55
2022/05/26 04:42:13;;;;;;;9.57;2.10;;;13.30;99.90;;;;;;5115475;28;20085;-55
2022/05/26 04:44:41;;;;;;;7.70;2.40;;;13.40;99.90;;;;;;5115539;28;20039;-55
2022/05/26 04:47:08;;;;;;;12.05;2.25;;;13.30;99.90;;;;;;5115086;28;20482;-56
2022/05/26 04:49:37;;;;;;;12.82;1.60;;;13.40;99.90;;;;;;5115230;28;20122;-55
2022/05/26 04:52:04;;;;;;;9.13;1.70;;;13.40;99.90;;;;;;5114953;28;20122;-55
2022/05/26 04:54:30;;;;;;;6.78;1.50;;;13.40;99.90;;;;;;5115305;28;20031;-55
2022/05/26 04:56:58;;;;;;;8.57;2.00;;;13.40;99.90;;;;;;5115001;28;20036;-55
2022/05/26 04:59:24;;;;;;;7.00;1.45;;;13.50;99.90;;;;;;5115046;28;20111;-55
2022/05/26 05:01:50;;;;;;;8.85;1.80;;;13.40;99.90;;;;;;5114868;28;20114;-55
2022/05/26 05:04:15;;;;;;;13.82;1.52;;;13.50;99.90;;;;;;5114948;28;20424;-55
2022/05/26 05:06:41;;;;;;;5.85;1.50;;;13.50;99.90;;;;;;5114974;28;20105;-55
2022/05/26 05:09:06;;;;;;;13.27;2.47;;;13.50;99.90;;;;;;5096724;28;20067;-55
2022/05/26 05:11:32;;;;;;;5.57;1.52;;;13.60;99.90;;;;;;5115148;28;20035;-55
2022/05/26 05:14:02;;;;;;;10.52;1.85;;;13.60;99.90;;;;;;5114822;28;20533;-55
2022/05/26 05:16:33;;;;;;;6.85;1.85;;;13.70;99.90;;;;;;5114655;28;20044;-55
2022/05/26 05:18:59;;;;;;;17.50;2.08;;;13.70;99.90;;;;;;5114369;28;20039;-55
2022/05/26 05:21:50;;;;;;;13.13;1.80;;;13.80;99.90;;;;;;5114856;28;20043;-55
2022/05/26 05:24:36;;;;;;;8.40;1.70;;;13.80;99.90;;;;;;5031575;28;20054;-55
2022/05/26 05:27:11;;;;;;;4.07;1.30;;;13.80;99.90;;;;;;5031847;28;20456;-55
2022/05/26 05:29:38;;;;;;;10.60;1.65;;;13.90;99.90;;;;;;5030442;28;20111;-55
2022/05/26 05:32:14;;;;;;;11.23;1.70;;;13.90;99.90;;;;;;5031236;28;20497;-55
2022/05/26 05:34:46;;;;;;;8.98;1.67;;;13.90;99.90;;;;;;5031460;28;20404;-55
2022/05/26 05:37:11;;;;;;;9.07;1.40;;;14.00;99.90;;;;;;5031578;28;20095;-55
2022/05/26 05:39:37;;;;;;;8.35;1.63;;;14.10;99.90;;;;;;5017673;28;20041;-55
2022/05/26 05:42:04;;;;;;;11.23;1.95;;;14.10;99.90;;;;;;5011942;28;20053;-55
2022/05/26 05:44:30;;;;;;;10.27;1.98;;;14.20;99.90;;;;;;5011954;28;20076;-55
2022/05/26 05:46:59;;;;;;;7.22;1.52;;;14.20;99.90;;;;;;5011945;28;20123;-55
2022/05/26 05:49:27;;;;;;;4.70;1.45;;;14.20;99.90;;;;;;5014298;28;20045;-55
2022/05/26 05:51:54;;;;;;;10.88;1.48;;;14.30;99.90;;;;;;5031413;28;20096;-55
2022/05/26 05:54:21;;;;;;;5.32;1.33;;;14.30;99.90;;;;;;5031193;28;20049;-55
2022/05/26 05:56:47;;;;;;;8.18;1.50;;;14.40;99.90;;;;;;5031178;28;20480;-55
2022/05/26 05:59:13;;;;;;;9.80;1.40;;;14.50;99.90;;;;;;5031249;28;20144;-55
2022/05/26 06:01:39;;;;;;;7.30;1.10;;;14.60;99.90;;;;;;5046235;28;20507;-55
2022/05/26 06:04:06;;;;;;;7.70;1.40;;;14.70;99.90;;;;;;5053469;28;20041;-55
2022/05/26 06:06:50;;;;;;;11.23;2.13;;;14.70;99.90;;;;;;5053272;28;20083;-55
2022/05/26 06:09:17;;;;;;;8.48;1.27;;;14.80;99.90;;;;;;5052920;28;20063;-55
2022/05/26 06:11:44;;;;;;;9.80;1.73;;;14.90;99.90;;;;;;5052972;28;20086;-55
2022/05/26 06:14:10;;;;;;;8.32;1.98;;;15.00;99.90;;;;;;5053076;28;20047;-55
2022/05/26 06:16:36;;;;;;;11.55;2.50;;;15.20;99.90;;;;;;5057891;28;20383;-55
2022/05/26 06:19:02;;;;;;;6.90;1.77;;;15.20;99.90;;;;;;5072752;28;20487;-55
2022/05/26 06:21:28;;;;;;;9.93;1.40;;;15.30;99.90;;;;;;5072736;28;20040;-55
2022/05/26 06:23:56;;;;;;;10.70;2.33;;;15.20;99.90;;;;;;5103146;28;20055;-55
2022/05/26 06:26:27;;;;;;;8.30;1.45;;;15.30;99.90;;;;;;5113282;28;20401;-55
2022/05/26 06:31:37;;;;;;;9.57;1.48;;;15.40;99.90;;;;;;5113548;28;20062;-55
2022/05/26 06:39:32;;;;;;;6.07;1.30;;;15.70;99.90;;;;;;5112848;28;20039;-55
2022/05/26 06:42:06;;;;;;;5.70;1.40;;;15.60;99.90;;;;;;5112957;28;20398;-55
2022/05/26 06:44:37;;;;;;;9.95;1.67;;;15.60;99.90;;;;;;5113119;28;20051;-55
2022/05/26 06:47:08;;;;;;;10.70;1.58;;;15.60;99.90;;;;;;5113291;28;20044;-55
2022/05/26 06:49:36;;;;;;;8.20;1.48;;;15.60;99.90;;;;;;5113519;28;20119;-55
2022/05/26 06:52:03;;;;;;;6.63;1.10;;;15.40;99.90;;;;;;5112933;28;20826;-55
2022/05/26 06:54:38;;;;;;;6.38;1.05;;;15.40;99.90;;;;;;5112505;28;20042;-55
2022/05/26 06:57:05;;;;;;;6.15;1.10;;;15.40;99.90;;;;;;5094011;28;20405;-55
2022/05/26 06:59:31;;;;;;;9.20;1.10;;;15.40;99.90;;;;;;5113104;28;20036;-55
2022/05/26 07:01:57;;;;;;;4.65;0.90;;;15.30;99.90;;;;;;5113028;28;20107;-55
2022/05/26 07:04:22;;;;;;;5.55;1.65;;;15.30;99.90;;;;;;5112827;28;20506;-55
2022/05/26 07:06:50;;;;;;;4.97;1.20;;;15.30;99.90;;;;;;5093248;28;20184;-55
2022/05/26 07:09:17;;;;;;;8.65;1.40;;;15.30;99.90;;;;;;5112589;28;20067;-55
2022/05/26 07:11:43;;;;;;;4.38;1.30;;;15.30;99.90;;;;;;5112509;28;20481;-55
2022/05/26 07:14:08;;;;;;;6.70;1.10;;;15.30;99.90;;;;;;5112289;28;20046;-55
2022/05/26 07:16:34;;;;;;;6.78;1.27;;;15.40;99.90;;;;;;5112651;28;20035;-55
2022/05/26 07:19:00;;;;;;;4.43;1.20;;;15.50;99.90;;;;;;5112808;28;20035;-55
2022/05/26 07:21:25;;;;;;;10.18;1.35;;;15.60;99.90;;;;;;5112808;28;20768;-55
2022/05/26 07:23:51;;;;;;;5.53;1.10;;;15.70;99.90;;;;;;5112351;28;20456;-55
2022/05/26 07:26:17;;;;;;;5.93;1.23;;;15.60;99.90;;;;;;5112316;28;20086;-55
2022/05/26 07:28:43;;;;;;;9.35;1.35;;;15.70;99.90;;;;;;5112428;28;20047;-55
2022/05/26 07:31:11;;;;;;;5.53;1.45;;;15.70;99.90;;;;;;5112596;28;20127;-55
2022/05/26 07:33:37;;;;;;;4.32;0.85;;;15.80;99.90;;;;;;5112639;28;20035;-55
2022/05/26 07:36:03;;;;;;;7.55;1.40;;;15.70;99.90;;;;;;5112345;28;20095;-55
2022/05/26 07:41:26;;;;;;;7.63;1.73;;;16.00;99.90;;;;;;5112692;28;20043;-55
2022/05/26 07:43:57;;;;;;;5.00;1.15;;;16.10;99.90;;;;;;5105909;28;20040;-55
2022/05/26 07:46:24;;;;;;;8.27;1.80;;;16.10;99.90;;;;;;5082087;28;21420;-56
2022/05/26 07:48:50;;;;;;;5.93;1.08;;;16.20;99.90;;;;;;5107749;28;20046;-56
2022/05/26 07:51:19;;;;;;;8.20;1.27;;;16.30;99.90;;;;;;5082417;28;20040;-55
2022/05/26 07:53:45;;;;;;;6.75;1.40;;;16.40;99.90;;;;;;5111793;28;20122;-55
2022/05/26 07:56:11;;;;;;;6.13;1.48;;;16.40;99.90;;;;;;5115758;28;20478;-55
2022/05/26 07:58:37;;;;;;;11.32;1.60;;;16.30;99.90;;;;;;5112838;28;20032;-54
2022/05/26 08:01:04;;;;;;;4.45;1.05;;;16.40;99.90;;;;;;5111352;28;20066;-53
2022/05/26 08:03:30;;;;;;;4.68;1.08;;;16.50;99.90;;;;;;5113896;28;20035;-53
2022/05/26 08:05:56;;;;;;;6.00;1.20;;;16.40;99.90;;;;;;5115381;28;20040;-53
2022/05/26 08:08:22;;;;;;;4.68;1.10;;;16.30;99.90;;;;;;5115778;28;20393;-54
2022/05/26 08:10:48;;;;;;;5.88;1.30;;;16.40;99.90;;;;;;5115733;28;20130;-54
2022/05/26 08:13:14;;;;;;;8.88;1.50;;;16.40;99.90;;;;;;5115893;28;20074;-53
2022/05/26 08:15:42;;;;;;;4.88;1.60;;;16.50;99.90;;;;;;5115677;28;20043;-53
2022/05/26 08:18:08;;;;;;;9.82;1.45;;;16.50;99.90;;;;;;5115728;28;20040;-53
2022/05/26 08:20:33;;;;;;;8.65;1.77;;;16.50;99.90;;;;;;5112601;28;20054;-53
2022/05/26 08:22:59;;;;;;;6.38;1.30;;;16.60;99.90;;;;;;5113560;28;20470;-53
2022/05/26 08:25:26;;;;;;;7.13;1.50;;;16.70;99.90;;;;;;5115266;28;20401;-54
2022/05/26 08:27:52;;;;;;;5.90;1.25;;;16.80;99.90;;;;;;5115169;28;20382;-53
2022/05/26 08:30:18;;;;;;;8.63;1.20;;;16.80;99.90;;;;;;5112572;28;20039;-54
2022/05/26 08:32:44;;;;;;;4.25;1.23;;;16.90;99.90;;;;;;5114852;28;20040;-53
2022/05/26 08:35:10;;;;;;;7.50;1.23;;;17.00;99.90;;;;;;5113816;28;20165;-54
2022/05/26 08:37:36;;;;;;;4.03;1.13;;;17.00;99.90;;;;;;5114408;28;20069;-52
2022/05/26 08:40:04;;;;;;;4.07;1.00;;;17.20;99.90;;;;;;5113800;28;20056;-52
2022/05/26 08:42:33;;;;;;;4.33;1.17;;;17.40;99.90;;;;;;5114840;28;20035;-53
2022/05/26 08:45:09;;;;;;;7.30;1.10;;;17.50;99.90;;;;;;5114749;28;20074;-53
2022/05/26 08:47:40;;;;;;;5.28;1.75;;;17.50;99.90;;;;;;5099253;28;20039;-53
2022/05/26 08:50:11;;;;;;;9.38;1.60;;;17.50;99.90;;;;;;5113584;28;20406;-54
2022/05/26 08:52:53;;;;;;;6.10;1.23;;;17.20;99.90;;;;;;5114677;28;20035;-53
2022/05/26 08:55:35;;;;;;;7.97;1.38;;;17.70;99.90;;;;;;5113970;28;20110;-54
2022/05/26 08:58:09;;;;;;;6.65;1.00;;;17.80;99.90;;;;;;5112476;28;20075;-53
2022/05/26 09:00:37;;;;;;;4.50;1.08;;;18.20;99.90;;;;;;5114866;28;20106;-54
2022/05/26 09:03:18;;;;;;;5.20;1.33;;;18.40;99.90;;;;;;5114367;28;20042;-54
2022/05/26 09:05:47;;;;;;;6.22;1.42;;;18.50;99.90;;;;;;5115035;28;20052;-53
2022/05/26 09:13:57;;;;;;;5.65;0.90;;;18.00;99.90;;;;;;5112948;28;20043;-54
2022/05/26 09:16:23;;;;;;;2.92;0.50;;;18.50;99.90;;;;;;5114048;28;20511;-54
2022/05/26 09:19:09;;;;;;;6.68;1.08;;;18.80;99.90;;;;;;5092800;28;20115;-54
2022/05/26 09:21:36;;;;;;;7.45;1.73;;;18.70;99.90;;;;;;5110705;28;20092;-54
2022/05/26 09:24:24;;;;;;;6.03;1.20;;;18.60;99.90;;;;;;5113273;28;20063;-54
2022/05/26 09:26:57;;;;;;;5.32;1.30;;;18.60;99.90;;;;;;5114623;28;20493;-54
2022/05/26 09:29:33;;;;;;;5.30;0.85;;;18.70;99.90;;;;;;5113246;28;20042;-54
2022/05/26 09:32:01;;;;;;;6.80;0.80;;;19.10;99.90;;;;;;5113419;28;20047;-54
2022/05/26 09:34:32;;;;;;;7.45;1.13;;;19.30;99.90;;;;;;5113980;28;20031;-54
2022/05/26 09:37:07;;;;;;;3.05;0.55;;;19.10;99.90;;;;;;5092493;28;20497;-53
2022/05/26 09:39:38;;;;;;;6.30;1.60;;;19.10;99.90;;;;;;5102128;28;20043;-53
2022/05/26 09:42:26;;;;;;;7.32;0.90;;;19.00;99.90;;;;;;5114034;28;20486;-54
2022/05/26 09:45:02;;;;;;;4.53;0.70;;;19.10;99.90;;;;;;5108902;28;20059;-54
2022/05/26 09:47:32;;;;;;;4.78;1.35;;;19.00;99.90;;;;;;5105952;28;20486;-54
2022/05/26 09:50:00;;;;;;;4.30;0.95;;;19.10;99.90;;;;;;5113429;28;20047;-54
2022/05/26 09:52:37;;;;;;;5.22;1.30;;;18.90;99.90;;;;;;5109471;28;20051;-53
2022/05/26 09:55:24;;;;;;;12.40;1.08;;;18.90;99.90;;;;;;5104571;28;20080;-53
2022/05/26 09:58:02;;;;;;;6.65;1.20;;;19.00;99.90;;;;;;5106987;28;20070;-53
2022/05/26 10:00:46;;;;;;;5.40;0.85;;;18.90;99.90;;;;;;5111977;28;20114;-53
2022/05/26 10:03:38;;;;;;;2.38;0.60;;;18.70;99.90;;;;;;5100813;28;20513;-53
2022/05/26 10:06:17;;;;;;;5.30;1.08;;;18.50;99.90;;;;;;5080045;28;20529;-53
2022/05/26 10:09:05;;;;;;;3.85;0.90;;;18.60;99.90;;;;;;5100394;28;20046;-54
2022/05/26 10:11:44;;;;;;;5.40;1.20;;;18.50;99.90;;;;;;5099184;28;20036;-53
2022/05/26 10:14:54;;;;;;;5.82;1.08;;;18.60;99.90;;;;;;5107347;28;20032;-53
2022/05/26 10:17:38;;;;;;;4.28;0.70;;;18.50;99.90;;;;;;4991327;28;20447;-54
2022/05/26 10:20:03;;;;;;;5.50;1.27;;;18.50;99.90;;;;;;4989794;28;20038;-53
2022/05/26 10:23:10;;;;;;;1.92;0.70;;;18.40;99.90;;;;;;4992307;28;20118;-49
2022/05/26 10:25:46;;;;;;;5.88;1.13;;;18.30;99.90;;;;;;4990609;28;20520;-53
2022/05/26 10:29:01;;;;;;;1.92;0.57;;;18.50;99.90;;;;;;4984655;28;20063;-51
2022/05/26 10:31:27;;;;;;;4.65;1.05;;;18.70;99.90;;;;;;4954005;28;20062;-53
2022/05/26 10:34:11;;;;;;;3.15;0.68;;;18.80;99.90;;;;;;4951805;29;20051;-53
2022/05/26 10:37:09;;;;;;;5.18;0.75;;;19.10;99.90;;;;;;4969222;28;20077;-52
2022/05/26 10:39:38;;;;;;;4.00;0.80;;;19.20;99.90;;;;;;4913753;29;20048;-53
2022/05/26 10:42:33;;;;;;;3.47;0.90;;;19.10;99.90;;;;;;4913838;29;20059;-53
2022/05/26 10:45:19;;;;;;;3.13;0.80;;;19.10;99.90;;;;;;4875198;29;20049;-54
2022/05/26 10:48:06;;;;;;;5.47;0.90;;;19.20;99.90;;;;;;4876203;29;20496;-54
2022/05/26 10:50:50;;;;;;;4.85;0.95;;;19.20;99.90;;;;;;4891988;29;20400;-53
2022/05/26 10:53:25;;;;;;;4.50;1.02;;;19.30;99.90;;;;;;4918447;29;20051;-54
2022/05/26 10:56:26;;;;;;;6.07;1.20;;;19.50;99.90;;;;;;4931771;29;20096;-53
2022/05/26 10:59:14;;;;;;;7.47;1.98;;;19.50;99.90;;;;;;4932391;29;20391;-54
2022/05/26 11:02:02;;;;;;;5.03;1.35;;;19.40;99.90;;;;;;4932092;28;20483;-53
2022/05/26 11:04:41;;;;;;;2.92;1.10;;;19.30;99.90;;;;;;4932498;29;20039;-53
2022/05/26 11:07:20;;;;;;;3.25;0.77;;;19.10;99.90;;;;;;4942501;29;20054;-53
2022/05/26 11:09:52;;;;;;;5.60;0.85;;;19.20;99.90;;;;;;4951530;29;20055;-52
2022/05/26 11:12:30;;;;;;;5.53;1.13;;;19.20;99.90;;;;;;4951444;29;20134;-52
2022/05/26 11:17:52;;;;;;;9.95;1.00;;;19.10;99.90;;;;;;5008028;28;20056;-54
2022/05/26 11:20:25;;;;;;;6.00;1.30;;;19.10;99.90;;;;;;5002256;28;20177;-54
2022/05/26 11:22:52;;;;;;;4.65;1.10;;;19.00;99.90;;;;;;5088570;28;20450;-55
2022/05/26 11:25:26;;;;;;;5.57;1.23;;;19.00;99.90;;;;;;5112103;28;20039;-55
2022/05/26 11:28:01;;;;;;;5.18;0.80;;;19.10;99.90;;;;;;5114799;28;20408;-55
2022/05/26 11:37:15;;;;;;;4.35;0.88;;;19.10;99.90;;;;;;5014098;28;20137;-54
2022/05/26 11:39:43;;;;;;;5.28;1.00;;;19.10;99.90;;;;;;5013111;28;20041;-55
2022/05/26 11:42:13;;;;;;;7.23;0.90;;;19.00;99.90;;;;;;5013823;28;20591;-55
2022/05/26 11:44:42;;;;;;;5.63;1.30;;;19.00;99.90;;;;;;5014024;28;20277;-55
2022/05/26 11:47:26;;;;;;;6.47;1.35;;;19.00;99.90;;;;;;5013739;28;20054;-55
2022/05/26 11:49:51;;;;;;;11.60;2.13;;;19.00;99.90;;;;;;5013665;28;20056;-55
2022/05/26 11:52:46;;;;;;;11.13;1.20;;;19.10;99.90;;;;;;5013511;28;20042;-55
2022/05/26 11:55:29;;;;;;;3.65;1.30;;;19.30;99.90;;;;;;5013507;28;20454;-55
2022/05/26 11:57:55;;;;;;;4.43;1.20;;;19.60;99.90;;;;;;5013556;28;20054;-55
2022/05/26 12:00:23;;;;;;;4.75;1.40;;;19.40;99.90;;;;;;5013572;28;20517;-55
2022/05/26 12:02:51;;;;;;;3.35;1.02;;;19.40;99.90;;;;;;4997482;28;20104;-55
2022/05/26 12:05:28;;;;;;;4.70;1.38;;;19.40;99.90;;;;;;5013677;28;20443;-55
2022/05/26 12:08:03;;;;;;;5.65;1.48;;;19.40;99.90;;;;;;5013521;28;20041;-55
2022/05/26 12:10:37;;;;;;;6.90;1.42;;;19.50;99.90;;;;;;5036987;28;20072;-54
2022/05/26 12:13:27;;;;;;;5.88;1.20;;;19.60;99.90;;;;;;5073908;28;20044;-55
2022/05/26 12:16:14;;;;;;;3.53;1.00;;;19.70;99.90;;;;;;5095421;28;20040;-55
2022/05/26 12:18:51;;;;;;;5.72;1.10;;;19.70;99.90;;;;;;5095727;28;20044;-55
2022/05/26 12:21:48;;;;;;;4.32;1.00;;;19.70;99.90;;;;;;5112794;28;20076;-55
2022/05/26 12:24:31;;;;;;;5.63;1.00;;;19.50;99.90;;;;;;5115743;28;20401;-55
2022/05/26 12:26:59;;;;;;;4.00;0.88;;;19.40;99.90;;;;;;5115700;28;20432;-55
2022/05/26 12:29:51;;;;;;;7.38;1.23;;;19.50;99.90;;;;;;5115858;28;20485;-55
2022/05/26 12:32:24;;;;;;;7.38;1.38;;;19.40;99.90;;;;;;5093766;28;20470;-55
2022/05/26 12:35:20;;;;;;;6.05;1.13;;;19.30;99.90;;;;;;5115315;28;20431;-55
2022/05/26 12:38:24;;;;;;;4.93;1.42;;;19.20;99.90;;;;;;5115107;28;20119;-55
2022/05/26 12:41:20;;;;;;;7.70;1.50;;;19.10;99.90;;;;;;5115394;28;20040;-55
2022/05/26 12:43:55;;;;;;;5.90;1.30;;;19.10;99.90;;;;;;5115489;28;20040;-55
2022/05/26 12:47:12;;;;;;;7.55;1.77;;;19.20;99.90;;;;;;5115352;28;20054;-55
2022/05/26 12:49:37;;;;;;;7.18;1.30;;;19.30;99.90;;;;;;5032575;28;20085;-55
2022/05/26 12:52:24;;;;;;;7.93;1.63;;;19.30;99.90;;;;;;5032594;28;20084;-55
2022/05/26 12:55:01;;;;;;;6.72;1.38;;;19.40;99.90;;;;;;5032321;28;20514;-55
2022/05/26 12:57:31;;;;;;;10.10;1.60;;;19.10;99.90;;;;;;5032436;28;20045;-56
2022/05/26 13:00:26;;;;;;;6.22;1.20;;;19.00;99.90;;;;;;5032196;28;20085;-55
2022/05/26 13:02:57;;;;;;;6.30;1.15;;;18.90;99.90;;;;;;5032148;28;20077;-55
2022/05/26 13:05:27;;;;;;;5.88;1.73;;;19.10;99.90;;;;;;5032353;28;20463;-55
2022/05/26 13:07:54;;;;;;;5.35;1.02;;;19.00;99.90;;;;;;5032425;28;20483;-54
2022/05/26 13:10:28;;;;;;;6.30;1.10;;;18.90;99.90;;;;;;5032223;28;20045;-55
2022/05/26 13:12:54;;;;;;;11.00;1.90;;;18.70;99.90;;;;;;5032107;28;20291;-55
2022/05/26 13:15:26;;;;;;;5.25;1.52;;;18.50;99.90;;;;;;5032036;28;20048;-55
2022/05/26 13:17:52;;;;;;;5.85;1.27;;;18.40;99.90;;;;;;5032150;28;20057;-55
2022/05/26 13:20:31;;;;;;;6.13;1.30;;;18.50;99.90;;;;;;5032264;28;20504;-55
2022/05/26 13:22:58;;;;;;;6.80;1.92;;;18.60;99.90;;;;;;5031753;28;20143;-55
2022/05/26 13:25:31;;;;;;;6.13;1.10;;;18.60;99.90;;;;;;5089180;28;20048;-55
2022/05/26 13:28:05;;;;;;;6.82;1.40;;;18.60;99.90;;;;;;5114013;28;20084;-55
2022/05/26 13:33:39;;;;;;;4.45;0.88;;;18.50;99.90;;;;;;5114162;28;20367;-53
2022/05/26 13:36:05;;;;;;;7.20;1.48;;;18.60;99.90;;;;;;5113764;28;20051;-53
2022/05/26 13:38:46;;;;;;;5.40;1.08;;;18.70;99.90;;;;;;5114046;28;20076;-53
2022/05/26 13:41:18;;;;;;;7.72;2.05;;;18.60;99.90;;;;;;5114058;28;20172;-53
2022/05/26 13:43:45;;;;;;;7.15;1.13;;;18.50;99.90;;;;;;5114225;28;20118;-53
2022/05/26 13:46:19;;;;;;;9.52;1.50;;;18.40;99.90;;;;;;5114153;28;20050;-53
2022/05/26 13:48:45;;;;;;;9.57;1.70;;;18.40;99.90;;;;;;5113750;28;20184;-54
2022/05/26 13:51:28;;;;;;;6.47;1.42;;;18.50;99.90;;;;;;5113032;28;20532;-53